sensor_id;sensor_type;location;lat;lon;timestamp;P1;durP1;ratioP1;P2;durP2;ratioP2
12554;SDS011;6343;50.868;4.700;2023-10-09T00:00:34;7.87;;;4.93;;
12554;SDS011;6343;50.868;4.700;2023-10-09T00:03:03;6.07;;;3.97;;
12554;SDS011;6343;50.868;4.700;2023-10-09T00:05:31;10.07;;;5.03;;
12554;SDS011;6343;50.868;4.700;2023-10-09T00:08:10;9.43;;;4.20;;
12554;SDS011;6343;50.868;4.700;2023-10-09T00:10:41;8.97;;;4.57;;
12554;SDS011;6343;50.868;4.700;2023-10-09T00:13:23;9.13;;;4.13;;
12554;SDS011;6343;50.868;4.700;2023-10-09T00:16:05;7.23;;;4.40;;
12554;SDS011;6343;50.868;4.700;2023-10-09T00:18:48;8.70;;;4.43;;
12554;SDS011;6343;50.868;4.700;2023-10-09T00:21:17;5.93;;;4.20;;
12554;SDS011;6343;50.868;4.700;2023-10-09T00:23:45;8.73;;;4.33;;
12554;SDS011;6343;50.868;4.700;2023-10-09T00:26:20;7.90;;;4.20;;
12554;SDS011;6343;50.868;4.700;2023-10-09T00:28:47;8.00;;;4.50;;
12554;SDS011;6343;50.868;4.700;2023-10-09T00:31:16;5.97;;;3.97;;
12554;SDS011;6343;50.868;4.700;2023-10-09T00:33:51;9.40;;;4.20;;
12554;SDS011;6343;50.868;4.700;2023-10-09T00:36:17;7.17;;;4.33;;
12554;SDS011;6343;50.868;4.700;2023-10-09T00:38:52;6.47;;;4.07;;
12554;SDS011;6343;50.868;4.700;2023-10-09T00:41:18;9.00;;;4.60;;
12554;SDS011;6343;50.868;4.700;2023-10-09T00:43:48;9.17;;;4.43;;
12554;SDS011;6343;50.868;4.700;2023-10-09T00:46:18;7.90;;;3.83;;
12554;SDS011;6343;50.868;4.700;2023-10-09T00:48:45;9.43;;;4.57;;
12554;SDS011;6343;50.868;4.700;2023-10-09T00:51:13;8.40;;;4.67;;
12554;SDS011;6343;50.868;4.700;2023-10-09T00:53:53;7.17;;;4.27;;
12554;SDS011;6343;50.868;4.700;2023-10-09T00:56:21;10.57;;;4.37;;
12554;SDS011;6343;50.868;4.700;2023-10-09T00:58:51;7.07;;;4.40;;
12554;SDS011;6343;50.868;4.700;2023-10-09T01:01:24;7.23;;;4.27;;
12554;SDS011;6343;50.868;4.700;2023-10-09T01:04:03;7.17;;;4.77;;
12554;SDS011;6343;50.868;4.700;2023-10-09T01:06:31;8.60;;;4.37;;
12554;SDS011;6343;50.868;4.700;2023-10-09T01:09:08;7.80;;;5.00;;
12554;SDS011;6343;50.868;4.700;2023-10-09T01:11:35;10.93;;;4.03;;
12554;SDS011;6343;50.868;4.700;2023-10-09T01:14:13;8.27;;;4.40;;
12554;SDS011;6343;50.868;4.700;2023-10-09T01:16:39;8.97;;;4.37;;
12554;SDS011;6343;50.868;4.700;2023-10-09T01:19:09;6.33;;;4.30;;
12554;SDS011;6343;50.868;4.700;2023-10-09T01:21:44;8.87;;;4.73;;
12554;SDS011;6343;50.868;4.700;2023-10-09T01:24:10;8.17;;;4.63;;
12554;SDS011;6343;50.868;4.700;2023-10-09T01:26:40;8.03;;;4.83;;
12554;SDS011;6343;50.868;4.700;2023-10-09T01:29:13;8.97;;;4.27;;
12554;SDS011;6343;50.868;4.700;2023-10-09T01:31:50;9.00;;;4.63;;
12554;SDS011;6343;50.868;4.700;2023-10-09T01:34:33;7.70;;;4.17;;
12554;SDS011;6343;50.868;4.700;2023-10-09T01:37:05;12.13;;;4.57;;
12554;SDS011;6343;50.868;4.700;2023-10-09T01:39:37;7.40;;;4.10;;
12554;SDS011;6343;50.868;4.700;2023-10-09T01:42:07;9.97;;;4.73;;
12554;SDS011;6343;50.868;4.700;2023-10-09T01:44:34;8.13;;;4.13;;
12554;SDS011;6343;50.868;4.700;2023-10-09T01:47:04;8.30;;;4.50;;
12554;SDS011;6343;50.868;4.700;2023-10-09T01:49:35;10.03;;;4.30;;
12554;SDS011;6343;50.868;4.700;2023-10-09T01:52:07;6.47;;;3.63;;
12554;SDS011;6343;50.868;4.700;2023-10-09T01:54:37;8.30;;;4.53;;
12554;SDS011;6343;50.868;4.700;2023-10-09T01:57:07;8.97;;;4.10;;
12554;SDS011;6343;50.868;4.700;2023-10-09T01:59:41;7.10;;;4.37;;
12554;SDS011;6343;50.868;4.700;2023-10-09T02:02:14;10.83;;;4.73;;
12554;SDS011;6343;50.868;4.700;2023-10-09T02:04:51;12.53;;;4.87;;
12554;SDS011;6343;50.868;4.700;2023-10-09T02:07:18;8.67;;;4.70;;
12554;SDS011;6343;50.868;4.700;2023-10-09T02:09:52;6.47;;;4.40;;
12554;SDS011;6343;50.868;4.700;2023-10-09T02:12:19;7.60;;;4.23;;
12554;SDS011;6343;50.868;4.700;2023-10-09T02:14:47;6.67;;;4.23;;
12554;SDS011;6343;50.868;4.700;2023-10-09T02:17:13;8.97;;;4.43;;
12554;SDS011;6343;50.868;4.700;2023-10-09T02:19:54;10.67;;;4.63;;
12554;SDS011;6343;50.868;4.700;2023-10-09T02:22:20;7.03;;;4.23;;
12554;SDS011;6343;50.868;4.700;2023-10-09T02:24:51;9.03;;;4.43;;
12554;SDS011;6343;50.868;4.700;2023-10-09T02:27:23;7.60;;;4.07;;
12554;SDS011;6343;50.868;4.700;2023-10-09T02:30:12;9.93;;;4.67;;
12554;SDS011;6343;50.868;4.700;2023-10-09T02:32:45;7.00;;;3.80;;
12554;SDS011;6343;50.868;4.700;2023-10-09T02:35:17;7.67;;;4.17;;
12554;SDS011;6343;50.868;4.700;2023-10-09T02:37:53;10.37;;;4.40;;
12554;SDS011;6343;50.868;4.700;2023-10-09T02:40:19;8.33;;;4.37;;
12554;SDS011;6343;50.868;4.700;2023-10-09T02:42:51;7.33;;;4.47;;
12554;SDS011;6343;50.868;4.700;2023-10-09T02:45:17;7.10;;;4.13;;
12554;SDS011;6343;50.868;4.700;2023-10-09T02:47:44;6.30;;;3.97;;
12554;SDS011;6343;50.868;4.700;2023-10-09T02:50:14;10.77;;;4.27;;
12554;SDS011;6343;50.868;4.700;2023-10-09T02:52:53;8.30;;;4.77;;
12554;SDS011;6343;50.868;4.700;2023-10-09T02:55:26;9.53;;;4.40;;
12554;SDS011;6343;50.868;4.700;2023-10-09T02:57:56;7.60;;;4.57;;
12554;SDS011;6343;50.868;4.700;2023-10-09T03:00:32;6.57;;;4.50;;
12554;SDS011;6343;50.868;4.700;2023-10-09T03:03:01;8.17;;;4.30;;
12554;SDS011;6343;50.868;4.700;2023-10-09T03:05:31;11.10;;;4.30;;
12554;SDS011;6343;50.868;4.700;2023-10-09T03:07:57;11.50;;;4.23;;
12554;SDS011;6343;50.868;4.700;2023-10-09T03:10:24;9.23;;;4.33;;
12554;SDS011;6343;50.868;4.700;2023-10-09T03:12:51;7.20;;;4.27;;
12554;SDS011;6343;50.868;4.700;2023-10-09T03:15:21;8.20;;;4.37;;
12554;SDS011;6343;50.868;4.700;2023-10-09T03:17:47;7.73;;;4.30;;
12554;SDS011;6343;50.868;4.700;2023-10-09T03:20:14;7.20;;;3.90;;
12554;SDS011;6343;50.868;4.700;2023-10-09T03:22:42;6.87;;;4.30;;
12554;SDS011;6343;50.868;4.700;2023-10-09T03:25:10;5.70;;;4.20;;
12554;SDS011;6343;50.868;4.700;2023-10-09T03:27:42;7.50;;;4.27;;
12554;SDS011;6343;50.868;4.700;2023-10-09T03:30:14;9.13;;;3.50;;
12554;SDS011;6343;50.868;4.700;2023-10-09T03:32:54;7.93;;;4.30;;
12554;SDS011;6343;50.868;4.700;2023-10-09T03:35:21;8.93;;;4.53;;
12554;SDS011;6343;50.868;4.700;2023-10-09T03:37:56;8.87;;;4.17;;
12554;SDS011;6343;50.868;4.700;2023-10-09T03:40:25;7.93;;;4.30;;
12554;SDS011;6343;50.868;4.700;2023-10-09T03:42:52;8.30;;;4.53;;
12554;SDS011;6343;50.868;4.700;2023-10-09T03:45:19;6.57;;;3.87;;
12554;SDS011;6343;50.868;4.700;2023-10-09T03:47:53;9.60;;;4.47;;
12554;SDS011;6343;50.868;4.700;2023-10-09T03:50:22;5.93;;;4.30;;
12554;SDS011;6343;50.868;4.700;2023-10-09T03:53:04;7.80;;;4.43;;
12554;SDS011;6343;50.868;4.700;2023-10-09T03:55:32;8.57;;;4.60;;
12554;SDS011;6343;50.868;4.700;2023-10-09T03:57:58;7.40;;;4.07;;
12554;SDS011;6343;50.868;4.700;2023-10-09T04:00:27;8.13;;;4.87;;
12554;SDS011;6343;50.868;4.700;2023-10-09T04:02:57;7.93;;;4.37;;
12554;SDS011;6343;50.868;4.700;2023-10-09T04:05:24;6.23;;;3.87;;
12554;SDS011;6343;50.868;4.700;2023-10-09T04:07:51;10.37;;;4.60;;
12554;SDS011;6343;50.868;4.700;2023-10-09T04:10:19;10.63;;;4.30;;
12554;SDS011;6343;50.868;4.700;2023-10-09T04:12:57;7.50;;;4.87;;
12554;SDS011;6343;50.868;4.700;2023-10-09T04:15:25;7.87;;;4.50;;
12554;SDS011;6343;50.868;4.700;2023-10-09T04:17:55;8.17;;;4.60;;
12554;SDS011;6343;50.868;4.700;2023-10-09T04:20:21;7.80;;;4.17;;
12554;SDS011;6343;50.868;4.700;2023-10-09T04:22:48;11.60;;;4.47;;
12554;SDS011;6343;50.868;4.700;2023-10-09T04:25:18;8.83;;;4.17;;
12554;SDS011;6343;50.868;4.700;2023-10-09T04:27:51;7.10;;;4.27;;
12554;SDS011;6343;50.868;4.700;2023-10-09T04:30:18;13.03;;;4.73;;
12554;SDS011;6343;50.868;4.700;2023-10-09T04:32:44;8.17;;;4.30;;
12554;SDS011;6343;50.868;4.700;2023-10-09T04:35:11;7.10;;;4.57;;
12554;SDS011;6343;50.868;4.700;2023-10-09T04:37:51;10.50;;;4.53;;
12554;SDS011;6343;50.868;4.700;2023-10-09T04:40:25;11.43;;;4.93;;
12554;SDS011;6343;50.868;4.700;2023-10-09T04:43:13;7.90;;;4.60;;
12554;SDS011;6343;50.868;4.700;2023-10-09T04:45:46;9.60;;;4.37;;
12554;SDS011;6343;50.868;4.700;2023-10-09T04:48:32;9.33;;;4.53;;
12554;SDS011;6343;50.868;4.700;2023-10-09T04:50:59;9.53;;;5.03;;
12554;SDS011;6343;50.868;4.700;2023-10-09T04:53:57;7.90;;;4.50;;
12554;SDS011;6343;50.868;4.700;2023-10-09T04:56:39;7.77;;;4.33;;
12554;SDS011;6343;50.868;4.700;2023-10-09T04:59:18;9.93;;;4.80;;
12554;SDS011;6343;50.868;4.700;2023-10-09T05:01:49;8.07;;;4.43;;
12554;SDS011;6343;50.868;4.700;2023-10-09T05:04:23;8.07;;;4.90;;
12554;SDS011;6343;50.868;4.700;2023-10-09T05:07:08;8.87;;;4.47;;
12554;SDS011;6343;50.868;4.700;2023-10-09T05:09:48;11.50;;;4.47;;
12554;SDS011;6343;50.868;4.700;2023-10-09T05:12:35;11.07;;;4.47;;
12554;SDS011;6343;50.868;4.700;2023-10-09T05:15:06;11.20;;;5.33;;
12554;SDS011;6343;50.868;4.700;2023-10-09T05:17:38;9.83;;;4.77;;
12554;SDS011;6343;50.868;4.700;2023-10-09T05:20:07;10.60;;;5.50;;
12554;SDS011;6343;50.868;4.700;2023-10-09T05:22:48;8.40;;;4.87;;
12554;SDS011;6343;50.868;4.700;2023-10-09T05:25:32;12.23;;;5.30;;
12554;SDS011;6343;50.868;4.700;2023-10-09T05:28:18;8.27;;;4.73;;
12554;SDS011;6343;50.868;4.700;2023-10-09T05:30:51;11.50;;;5.47;;
12554;SDS011;6343;50.868;4.700;2023-10-09T05:33:41;9.97;;;5.47;;
12554;SDS011;6343;50.868;4.700;2023-10-09T05:36:10;8.63;;;4.63;;
12554;SDS011;6343;50.868;4.700;2023-10-09T05:38:45;7.30;;;5.00;;
12554;SDS011;6343;50.868;4.700;2023-10-09T05:41:23;8.73;;;4.87;;
12554;SDS011;6343;50.868;4.700;2023-10-09T05:44:08;9.23;;;4.53;;
12554;SDS011;6343;50.868;4.700;2023-10-09T05:46:52;7.53;;;4.60;;
12554;SDS011;6343;50.868;4.700;2023-10-09T05:49:39;8.73;;;4.83;;
12554;SDS011;6343;50.868;4.700;2023-10-09T05:52:11;14.47;;;4.97;;
12554;SDS011;6343;50.868;4.700;2023-10-09T05:54:56;12.73;;;5.20;;
12554;SDS011;6343;50.868;4.700;2023-10-09T05:57:40;7.40;;;5.00;;
12554;SDS011;6343;50.868;4.700;2023-10-09T06:00:25;6.70;;;5.00;;
12554;SDS011;6343;50.868;4.700;2023-10-09T06:03:10;14.03;;;5.23;;
12554;SDS011;6343;50.868;4.700;2023-10-09T06:05:55;9.77;;;5.57;;
12554;SDS011;6343;50.868;4.700;2023-10-09T06:08:25;14.93;;;5.10;;
12554;SDS011;6343;50.868;4.700;2023-10-09T06:11:17;9.50;;;6.27;;
12554;SDS011;6343;50.868;4.700;2023-10-09T06:14:00;9.97;;;5.97;;
12554;SDS011;6343;50.868;4.700;2023-10-09T06:16:33;9.73;;;5.43;;
12554;SDS011;6343;50.868;4.700;2023-10-09T06:19:09;8.50;;;4.87;;
12554;SDS011;6343;50.868;4.700;2023-10-09T06:21:45;10.03;;;5.13;;
12554;SDS011;6343;50.868;4.700;2023-10-09T06:24:26;11.47;;;5.90;;
12554;SDS011;6343;50.868;4.700;2023-10-09T06:26:59;12.77;;;5.97;;
12554;SDS011;6343;50.868;4.700;2023-10-09T06:29:25;10.03;;;5.33;;
12554;SDS011;6343;50.868;4.700;2023-10-09T06:32:04;9.70;;;4.97;;
12554;SDS011;6343;50.868;4.700;2023-10-09T06:34:51;10.57;;;5.23;;
12554;SDS011;6343;50.868;4.700;2023-10-09T06:37:18;12.23;;;5.70;;
12554;SDS011;6343;50.868;4.700;2023-10-09T06:45:04;10.90;;;5.80;;
12554;SDS011;6343;50.868;4.700;2023-10-09T06:47:33;12.47;;;5.80;;
12554;SDS011;6343;50.868;4.700;2023-10-09T06:50:28;10.50;;;5.20;;
12554;SDS011;6343;50.868;4.700;2023-10-09T06:53:14;11.23;;;5.73;;
12554;SDS011;6343;50.868;4.700;2023-10-09T06:55:42;9.23;;;4.27;;
12554;SDS011;6343;50.868;4.700;2023-10-09T06:58:16;11.40;;;5.50;;
12554;SDS011;6343;50.868;4.700;2023-10-09T07:00:51;14.93;;;5.57;;
12554;SDS011;6343;50.868;4.700;2023-10-09T07:03:24;8.83;;;4.93;;
12554;SDS011;6343;50.868;4.700;2023-10-09T07:06:04;10.13;;;5.10;;
12554;SDS011;6343;50.868;4.700;2023-10-09T07:08:34;9.03;;;5.30;;
12554;SDS011;6343;50.868;4.700;2023-10-09T07:11:04;9.53;;;4.80;;
12554;SDS011;6343;50.868;4.700;2023-10-09T07:13:48;11.03;;;5.47;;
12554;SDS011;6343;50.868;4.700;2023-10-09T07:16:23;8.77;;;5.30;;
12554;SDS011;6343;50.868;4.700;2023-10-09T07:18:53;8.20;;;5.00;;
12554;SDS011;6343;50.868;4.700;2023-10-09T07:21:20;10.30;;;5.43;;
12554;SDS011;6343;50.868;4.700;2023-10-09T07:23:53;10.13;;;4.60;;
12554;SDS011;6343;50.868;4.700;2023-10-09T07:26:21;13.27;;;5.40;;
12554;SDS011;6343;50.868;4.700;2023-10-09T07:29:02;11.80;;;5.30;;
12554;SDS011;6343;50.868;4.700;2023-10-09T07:31:41;11.93;;;5.90;;
12554;SDS011;6343;50.868;4.700;2023-10-09T07:34:13;19.50;;;8.10;;
12554;SDS011;6343;50.868;4.700;2023-10-09T07:37:18;10.57;;;5.80;;
12554;SDS011;6343;50.868;4.700;2023-10-09T07:39:45;11.77;;;5.40;;
12554;SDS011;6343;50.868;4.700;2023-10-09T07:42:22;13.67;;;6.07;;
12554;SDS011;6343;50.868;4.700;2023-10-09T07:45:00;14.17;;;5.67;;
12554;SDS011;6343;50.868;4.700;2023-10-09T07:47:47;11.63;;;6.00;;
12554;SDS011;6343;50.868;4.700;2023-10-09T07:50:26;11.50;;;5.07;;
12554;SDS011;6343;50.868;4.700;2023-10-09T07:53:03;11.17;;;5.20;;
12554;SDS011;6343;50.868;4.700;2023-10-09T07:55:51;11.07;;;5.17;;
12554;SDS011;6343;50.868;4.700;2023-10-09T07:58:24;11.53;;;5.07;;
12554;SDS011;6343;50.868;4.700;2023-10-09T08:00:54;9.70;;;4.93;;
12554;SDS011;6343;50.868;4.700;2023-10-09T08:03:23;12.03;;;5.60;;
12554;SDS011;6343;50.868;4.700;2023-10-09T08:05:49;11.73;;;5.57;;
12554;SDS011;6343;50.868;4.700;2023-10-09T08:08:18;11.57;;;6.27;;
12554;SDS011;6343;50.868;4.700;2023-10-09T08:11:04;9.40;;;5.83;;
12554;SDS011;6343;50.868;4.700;2023-10-09T08:13:48;18.20;;;5.97;;
12554;SDS011;6343;50.868;4.700;2023-10-09T08:16:14;15.60;;;5.63;;
12554;SDS011;6343;50.868;4.700;2023-10-09T08:18:47;9.20;;;5.17;;
12554;SDS011;6343;50.868;4.700;2023-10-09T08:21:18;11.13;;;5.80;;
12554;SDS011;6343;50.868;4.700;2023-10-09T08:23:45;9.47;;;5.40;;
12554;SDS011;6343;50.868;4.700;2023-10-09T08:26:14;13.87;;;5.30;;
12554;SDS011;6343;50.868;4.700;2023-10-09T08:28:53;10.10;;;5.70;;
12554;SDS011;6343;50.868;4.700;2023-10-09T08:31:22;11.57;;;5.57;;
12554;SDS011;6343;50.868;4.700;2023-10-09T08:34:10;14.63;;;5.93;;
12554;SDS011;6343;50.868;4.700;2023-10-09T08:36:48;14.90;;;6.17;;
12554;SDS011;6343;50.868;4.700;2023-10-09T08:39:22;10.37;;;5.70;;
12554;SDS011;6343;50.868;4.700;2023-10-09T08:41:53;13.80;;;6.23;;
12554;SDS011;6343;50.868;4.700;2023-10-09T08:44:23;10.37;;;5.43;;
12554;SDS011;6343;50.868;4.700;2023-10-09T08:46:56;9.47;;;5.73;;
12554;SDS011;6343;50.868;4.700;2023-10-09T08:49:23;10.90;;;6.57;;
12554;SDS011;6343;50.868;4.700;2023-10-09T08:51:50;9.97;;;5.73;;
12554;SDS011;6343;50.868;4.700;2023-10-09T08:54:18;11.00;;;6.23;;
12554;SDS011;6343;50.868;4.700;2023-10-09T08:56:47;9.90;;;5.03;;
12554;SDS011;6343;50.868;4.700;2023-10-09T08:59:16;12.70;;;6.70;;
12554;SDS011;6343;50.868;4.700;2023-10-09T09:01:46;13.73;;;5.87;;
12554;SDS011;6343;50.868;4.700;2023-10-09T09:04:33;10.87;;;5.47;;
12554;SDS011;6343;50.868;4.700;2023-10-09T09:07:01;14.10;;;5.33;;
12554;SDS011;6343;50.868;4.700;2023-10-09T09:09:29;11.37;;;6.17;;
12554;SDS011;6343;50.868;4.700;2023-10-09T09:11:57;12.10;;;5.70;;
12554;SDS011;6343;50.868;4.700;2023-10-09T09:14:35;15.43;;;5.67;;
12554;SDS011;6343;50.868;4.700;2023-10-09T09:17:02;9.70;;;5.40;;
12554;SDS011;6343;50.868;4.700;2023-10-09T09:19:32;9.00;;;5.30;;
12554;SDS011;6343;50.868;4.700;2023-10-09T09:22:03;9.37;;;5.17;;
12554;SDS011;6343;50.868;4.700;2023-10-09T09:24:39;7.73;;;5.17;;
12554;SDS011;6343;50.868;4.700;2023-10-09T09:27:11;12.27;;;6.20;;
12554;SDS011;6343;50.868;4.700;2023-10-09T09:29:56;15.07;;;5.73;;
12554;SDS011;6343;50.868;4.700;2023-10-09T09:32:30;9.80;;;5.97;;
12554;SDS011;6343;50.868;4.700;2023-10-09T09:35:04;10.47;;;5.60;;
12554;SDS011;6343;50.868;4.700;2023-10-09T09:37:31;12.20;;;5.37;;
12554;SDS011;6343;50.868;4.700;2023-10-09T09:40:04;12.37;;;5.63;;
12554;SDS011;6343;50.868;4.700;2023-10-09T09:42:43;9.90;;;5.50;;
12554;SDS011;6343;50.868;4.700;2023-10-09T09:45:13;10.27;;;4.97;;
12554;SDS011;6343;50.868;4.700;2023-10-09T09:47:44;14.00;;;5.97;;
12554;SDS011;6343;50.868;4.700;2023-10-09T09:50:17;11.93;;;5.80;;
12554;SDS011;6343;50.868;4.700;2023-10-09T09:52:54;15.27;;;5.77;;
12554;SDS011;6343;50.868;4.700;2023-10-09T09:55:24;11.23;;;5.63;;
12554;SDS011;6343;50.868;4.700;2023-10-09T09:57:56;11.30;;;5.53;;
12554;SDS011;6343;50.868;4.700;2023-10-09T10:00:25;10.27;;;5.63;;
12554;SDS011;6343;50.868;4.700;2023-10-09T10:05:54;10.70;;;6.00;;
12554;SDS011;6343;50.868;4.700;2023-10-09T10:08:22;10.57;;;5.70;;
12554;SDS011;6343;50.868;4.700;2023-10-09T10:10:58;6.87;;;4.90;;
12554;SDS011;6343;50.868;4.700;2023-10-09T10:16:12;13.67;;;6.07;;
12554;SDS011;6343;50.868;4.700;2023-10-09T10:21:33;12.13;;;6.20;;
12554;SDS011;6343;50.868;4.700;2023-10-09T10:35:35;10.97;;;4.83;;
12554;SDS011;6343;50.868;4.700;2023-10-09T10:38:24;8.57;;;5.20;;
12554;SDS011;6343;50.868;4.700;2023-10-09T10:40:50;8.03;;;5.30;;
12554;SDS011;6343;50.868;4.700;2023-10-09T10:43:23;10.73;;;4.53;;
12554;SDS011;6343;50.868;4.700;2023-10-09T10:46:08;9.63;;;5.10;;
12554;SDS011;6343;50.868;4.700;2023-10-09T10:48:39;10.30;;;5.47;;
12554;SDS011;6343;50.868;4.700;2023-10-09T10:51:12;7.87;;;4.63;;
12554;SDS011;6343;50.868;4.700;2023-10-09T10:53:52;10.83;;;5.60;;
12554;SDS011;6343;50.868;4.700;2023-10-09T10:56:25;10.57;;;5.50;;
12554;SDS011;6343;50.868;4.700;2023-10-09T10:59:00;12.13;;;4.83;;
12554;SDS011;6343;50.868;4.700;2023-10-09T11:01:35;10.23;;;4.97;;
12554;SDS011;6343;50.868;4.700;2023-10-09T11:04:20;13.60;;;5.83;;
12554;SDS011;6343;50.868;4.700;2023-10-09T11:06:59;9.17;;;5.37;;
12554;SDS011;6343;50.868;4.700;2023-10-09T11:09:47;10.10;;;4.87;;
12554;SDS011;6343;50.868;4.700;2023-10-09T11:12:29;8.90;;;4.83;;
12554;SDS011;6343;50.868;4.700;2023-10-09T11:15:09;7.70;;;5.03;;
12554;SDS011;6343;50.868;4.700;2023-10-09T11:20:24;14.67;;;4.93;;
12554;SDS011;6343;50.868;4.700;2023-10-09T11:22:51;8.73;;;4.60;;
12554;SDS011;6343;50.868;4.700;2023-10-09T11:25:41;10.83;;;4.53;;
12554;SDS011;6343;50.868;4.700;2023-10-09T11:28:18;14.07;;;4.87;;
12554;SDS011;6343;50.868;4.700;2023-10-09T11:31:12;10.00;;;5.07;;
12554;SDS011;6343;50.868;4.700;2023-10-09T11:36:59;9.90;;;5.23;;
12554;SDS011;6343;50.868;4.700;2023-10-09T11:39:26;8.50;;;5.23;;
12554;SDS011;6343;50.868;4.700;2023-10-09T11:42:07;11.87;;;4.70;;
12554;SDS011;6343;50.868;4.700;2023-10-09T11:44:40;9.17;;;4.27;;
12554;SDS011;6343;50.868;4.700;2023-10-09T11:47:10;12.03;;;5.23;;
12554;SDS011;6343;50.868;4.700;2023-10-09T11:49:54;8.23;;;4.73;;
12554;SDS011;6343;50.868;4.700;2023-10-09T11:52:54;8.37;;;4.60;;
12554;SDS011;6343;50.868;4.700;2023-10-09T11:55:22;12.80;;;4.63;;
12554;SDS011;6343;50.868;4.700;2023-10-09T11:57:50;9.63;;;5.00;;
12554;SDS011;6343;50.868;4.700;2023-10-09T12:00:17;10.90;;;5.13;;
12554;SDS011;6343;50.868;4.700;2023-10-09T12:02:55;9.73;;;5.33;;
12554;SDS011;6343;50.868;4.700;2023-10-09T12:05:27;14.63;;;5.07;;
12554;SDS011;6343;50.868;4.700;2023-10-09T12:07:53;9.57;;;4.47;;
12554;SDS011;6343;50.868;4.700;2023-10-09T12:10:21;14.13;;;4.67;;
12554;SDS011;6343;50.868;4.700;2023-10-09T12:12:51;9.80;;;4.60;;
12554;SDS011;6343;50.868;4.700;2023-10-09T12:15:18;8.90;;;5.13;;
12554;SDS011;6343;50.868;4.700;2023-10-09T12:17:44;12.93;;;4.77;;
12554;SDS011;6343;50.868;4.700;2023-10-09T12:20:13;6.07;;;4.30;;
12554;SDS011;6343;50.868;4.700;2023-10-09T12:22:55;12.80;;;5.13;;
12554;SDS011;6343;50.868;4.700;2023-10-09T12:25:23;11.43;;;5.30;;
12554;SDS011;6343;50.868;4.700;2023-10-09T12:27:49;8.70;;;5.00;;
12554;SDS011;6343;50.868;4.700;2023-10-09T12:30:19;8.77;;;4.83;;
12554;SDS011;6343;50.868;4.700;2023-10-09T12:32:52;11.27;;;5.17;;
12554;SDS011;6343;50.868;4.700;2023-10-09T12:35:18;15.37;;;4.90;;
12554;SDS011;6343;50.868;4.700;2023-10-09T12:37:45;7.17;;;4.00;;
12554;SDS011;6343;50.868;4.700;2023-10-09T12:40:12;8.93;;;5.10;;
12554;SDS011;6343;50.868;4.700;2023-10-09T12:42:38;11.47;;;5.27;;
12554;SDS011;6343;50.868;4.700;2023-10-09T12:45:05;8.10;;;4.77;;
12554;SDS011;6343;50.868;4.700;2023-10-09T12:47:35;17.23;;;5.90;;
12554;SDS011;6343;50.868;4.700;2023-10-09T12:50:05;7.73;;;5.00;;
12554;SDS011;6343;50.868;4.700;2023-10-09T12:52:39;11.00;;;5.10;;
12554;SDS011;6343;50.868;4.700;2023-10-09T12:55:05;14.10;;;5.10;;
12554;SDS011;6343;50.868;4.700;2023-10-09T12:57:35;11.83;;;4.93;;
12554;SDS011;6343;50.868;4.700;2023-10-09T13:00:01;11.83;;;5.70;;
12554;SDS011;6343;50.868;4.700;2023-10-09T13:02:36;13.10;;;5.63;;
12554;SDS011;6343;50.868;4.700;2023-10-09T13:05:02;8.77;;;4.83;;
12554;SDS011;6343;50.868;4.700;2023-10-09T13:07:32;11.30;;;5.37;;
12554;SDS011;6343;50.868;4.700;2023-10-09T13:09:58;13.67;;;6.17;;
12554;SDS011;6343;50.868;4.700;2023-10-09T13:12:34;12.30;;;6.13;;
12554;SDS011;6343;50.868;4.700;2023-10-09T13:15:09;10.30;;;5.47;;
12554;SDS011;6343;50.868;4.700;2023-10-09T13:17:39;10.97;;;5.90;;
12554;SDS011;6343;50.868;4.700;2023-10-09T13:20:06;11.20;;;5.70;;
12554;SDS011;6343;50.868;4.700;2023-10-09T13:22:39;11.37;;;6.47;;
12554;SDS011;6343;50.868;4.700;2023-10-09T13:25:06;11.83;;;6.40;;
12554;SDS011;6343;50.868;4.700;2023-10-09T13:27:39;10.20;;;5.40;;
12554;SDS011;6343;50.868;4.700;2023-10-09T13:30:06;11.93;;;5.33;;
12554;SDS011;6343;50.868;4.700;2023-10-09T13:32:33;9.80;;;5.97;;
12554;SDS011;6343;50.868;4.700;2023-10-09T13:35:04;13.53;;;6.33;;
12554;SDS011;6343;50.868;4.700;2023-10-09T13:37:31;16.57;;;6.00;;
12554;SDS011;6343;50.868;4.700;2023-10-09T13:40:04;11.77;;;5.97;;
12554;SDS011;6343;50.868;4.700;2023-10-09T13:42:34;14.37;;;5.97;;
12554;SDS011;6343;50.868;4.700;2023-10-09T13:45:04;13.30;;;6.23;;
12554;SDS011;6343;50.868;4.700;2023-10-09T13:47:40;15.23;;;6.57;;
12554;SDS011;6343;50.868;4.700;2023-10-09T13:50:09;9.70;;;6.50;;
12554;SDS011;6343;50.868;4.700;2023-10-09T13:52:35;12.40;;;5.50;;
12554;SDS011;6343;50.868;4.700;2023-10-09T13:55:05;12.73;;;5.90;;
12554;SDS011;6343;50.868;4.700;2023-10-09T13:57:40;14.43;;;6.30;;
12554;SDS011;6343;50.868;4.700;2023-10-09T14:00:11;11.83;;;6.33;;
12554;SDS011;6343;50.868;4.700;2023-10-09T14:02:38;15.70;;;6.97;;
12554;SDS011;6343;50.868;4.700;2023-10-09T14:05:04;14.43;;;5.97;;
12554;SDS011;6343;50.868;4.700;2023-10-09T14:07:33;12.87;;;6.00;;
12554;SDS011;6343;50.868;4.700;2023-10-09T14:10:00;13.00;;;6.67;;
12554;SDS011;6343;50.868;4.700;2023-10-09T14:12:32;11.87;;;6.40;;
12554;SDS011;6343;50.868;4.700;2023-10-09T14:14:59;11.30;;;5.97;;
12554;SDS011;6343;50.868;4.700;2023-10-09T14:17:28;10.37;;;6.10;;
12554;SDS011;6343;50.868;4.700;2023-10-09T14:19:55;11.23;;;5.70;;
12554;SDS011;6343;50.868;4.700;2023-10-09T14:22:26;16.70;;;7.70;;
12554;SDS011;6343;50.868;4.700;2023-10-09T14:24:53;12.67;;;6.67;;
12554;SDS011;6343;50.868;4.700;2023-10-09T14:27:23;11.30;;;6.30;;
12554;SDS011;6343;50.868;4.700;2023-10-09T14:29:52;23.63;;;7.30;;
12554;SDS011;6343;50.868;4.700;2023-10-09T14:32:24;16.77;;;7.37;;
12554;SDS011;6343;50.868;4.700;2023-10-09T14:34:54;12.13;;;6.60;;
12554;SDS011;6343;50.868;4.700;2023-10-09T14:37:25;16.33;;;7.13;;
12554;SDS011;6343;50.868;4.700;2023-10-09T14:39:52;18.07;;;7.50;;
12554;SDS011;6343;50.868;4.700;2023-10-09T14:42:20;16.90;;;6.40;;
12554;SDS011;6343;50.868;4.700;2023-10-09T14:44:49;14.27;;;6.70;;
12554;SDS011;6343;50.868;4.700;2023-10-09T14:47:15;20.00;;;6.73;;
12554;SDS011;6343;50.868;4.700;2023-10-09T14:49:46;13.10;;;7.07;;
12554;SDS011;6343;50.868;4.700;2023-10-09T14:52:13;10.50;;;6.70;;
12554;SDS011;6343;50.868;4.700;2023-10-09T14:54:42;13.13;;;7.30;;
12554;SDS011;6343;50.868;4.700;2023-10-09T14:57:12;14.77;;;7.33;;
12554;SDS011;6343;50.868;4.700;2023-10-09T14:59:38;12.07;;;5.87;;
12554;SDS011;6343;50.868;4.700;2023-10-09T15:02:05;13.80;;;6.13;;
12554;SDS011;6343;50.868;4.700;2023-10-09T15:04:32;10.20;;;5.83;;
12554;SDS011;6343;50.868;4.700;2023-10-09T15:07:02;11.00;;;6.53;;
12554;SDS011;6343;50.868;4.700;2023-10-09T15:09:31;13.53;;;6.47;;
12554;SDS011;6343;50.868;4.700;2023-10-09T15:11:59;15.47;;;6.67;;
12554;SDS011;6343;50.868;4.700;2023-10-09T15:14:26;17.00;;;7.00;;
12554;SDS011;6343;50.868;4.700;2023-10-09T15:16:52;9.47;;;6.30;;
12554;SDS011;6343;50.868;4.700;2023-10-09T15:19:18;13.37;;;6.20;;
12554;SDS011;6343;50.868;4.700;2023-10-09T15:21:45;11.93;;;6.77;;
12554;SDS011;6343;50.868;4.700;2023-10-09T15:24:11;11.77;;;5.77;;
12554;SDS011;6343;50.868;4.700;2023-10-09T15:26:44;13.37;;;6.00;;
12554;SDS011;6343;50.868;4.700;2023-10-09T15:29:20;10.20;;;6.17;;
12554;SDS011;6343;50.868;4.700;2023-10-09T15:32:09;13.30;;;7.37;;
12554;SDS011;6343;50.868;4.700;2023-10-09T15:34:40;13.37;;;6.30;;
12554;SDS011;6343;50.868;4.700;2023-10-09T15:37:07;13.10;;;6.47;;
12554;SDS011;6343;50.868;4.700;2023-10-09T15:39:36;12.03;;;5.90;;
12554;SDS011;6343;50.868;4.700;2023-10-09T15:42:03;9.57;;;5.53;;
12554;SDS011;6343;50.868;4.700;2023-10-09T15:44:31;11.60;;;6.83;;
12554;SDS011;6343;50.868;4.700;2023-10-09T15:47:02;17.30;;;6.40;;
12554;SDS011;6343;50.868;4.700;2023-10-09T15:49:28;12.57;;;6.03;;
12554;SDS011;6343;50.868;4.700;2023-10-09T15:51:58;13.40;;;6.30;;
12554;SDS011;6343;50.868;4.700;2023-10-09T15:54:26;12.23;;;5.93;;
12554;SDS011;6343;50.868;4.700;2023-10-09T15:56:53;9.43;;;5.90;;
12554;SDS011;6343;50.868;4.700;2023-10-09T15:59:20;12.40;;;6.37;;